Time,TemperatureF,DewpointF,PressureIn,WindDirection,WindDirectionDegrees,WindSpeedMPH,WindSpeedGustMPH,Humidity,HourlyPrecipIn,Conditions,Clouds,dailyrainin,SolarRadiationWatts/m^2,SoftwareType,DateUTC
2013-01-29 00:00:00,55.8,52.9,30.26,ENE,61,0.0,0.0,90,0.00,,,0.00,0.0,meteohub,2013-01-29 05:00:00,
2013-01-29 00:01:00,55.8,52.9,30.26,ENE,62,0.0,0.0,90,0.00,,,0.00,0.0,meteohub,2013-01-29 05:01:00,
2013-01-29 00:03:00,55.8,52.9,30.26,ENE,61,0.0,0.0,90,0.00,,,0.00,0.0,meteohub,2013-01-29 05:03:00,
2013-01-29 00:08:00,55.6,52.7,30.26,ENE,61,0.0,0.0,90,0.00,,,0.00,0.0,meteohub,2013-01-29 05:08:00,
2013-01-29 00:13:00,55.4,52.9,30.25,ENE,61,0.0,0.0,91,0.00,,,0.00,0.0,meteohub,2013-01-29 05:13:00,
2013-01-29 00:18:00,55.2,52.7,30.26,ENE,62,0.0,0.0,91,0.00,,,0.00,0.0,meteohub,2013-01-29 05:18:00,
2013-01-29 00:23:00,55.2,52.7,30.25,ENE,61,0.0,0.0,91,0.00,,,0.00,0.0,meteohub,2013-01-29 05:23:00,
2013-01-29 00:28:00,55.0,52.5,30.25,ENE,61,0.0,0.0,91,0.00,,,0.00,0.0,meteohub,2013-01-29 05:28:00,
2013-01-29 00:33:00,55.0,52.5,30.25,ENE,61,0.0,0.0,91,0.00,,,0.00,0.0,meteohub,2013-01-29 05:33:00,
2013-01-29 00:38:00,54.9,52.3,30.25,ENE,61,0.0,0.0,91,0.00,,,0.00,0.0,meteohub,2013-01-29 05:38:00,
2013-01-29 00:43:00,54.7,52.2,30.25,ENE,61,0.0,0.0,91,0.00,,,0.00,0.0,meteohub,2013-01-29 05:43:00,
2013-01-29 00:48:00,54.5,52.0,30.24,ENE,61,0.0,0.0,91,0.00,,,0.00,0.0,meteohub,2013-01-29 05:48:00,
2013-01-29 00:53:00,54.3,51.8,30.25,ENE,61,0.0,0.0,91,0.00,,,0.00,0.0,meteohub,2013-01-29 05:53:00,
2013-01-29 00:58:00,54.3,51.8,30.24,ENE,61,0.0,0.0,91,0.00,,,0.00,0.0,meteohub,2013-01-29 05:58:00,
2013-01-29 01:03:00,54.1,51.6,30.24,ENE,62,0.0,0.0,91,0.00,,,0.00,0.0,meteohub,2013-01-29 06:03:00,
2013-01-29 01:08:00,54.1,51.6,30.24,ENE,61,0.0,0.0,91,0.00,,,0.00,0.0,meteohub,2013-01-29 06:08:00,
2013-01-29 01:13:00,54.0,51.4,30.24,ENE,61,0.0,0.0,91,0.00,,,0.00,0.0,meteohub,2013-01-29 06:13:00,
2013-01-29 01:18:00,54.0,51.4,30.24,ENE,61,0.0,0.0,91,0.00,,,0.00,0.0,meteohub,2013-01-29 06:18:00,
2013-01-29 01:23:00,54.0,51.4,30.24,ENE,61,0.0,0.0,91,0.00,,,0.00,0.0,meteohub,2013-01-29 06:23:00,
2013-01-29 01:28:00,54.0,51.4,30.23,ENE,62,0.0,0.0,91,0.00,,,0.00,0.0,meteohub,2013-01-29 06:28:00,
2013-01-29 01:33:00,54.0,51.4,30.23,ENE,61,0.0,0.0,91,0.00,,,0.00,0.0,meteohub,2013-01-29 06:33:00,
2013-01-29 01:38:00,54.0,51.4,30.23,ENE,62,0.0,0.0,91,0.00,,,0.00,0.0,meteohub,2013-01-29 06:38:00,
2013-01-29 01:43:00,53.8,51.3,30.23,ENE,61,0.0,0.0,91,0.00,,,0.00,0.0,meteohub,2013-01-29 06:43:00,
2013-01-29 01:48:00,53.4,50.9,30.23,ENE,61,0.0,0.0,91,0.00,,,0.00,0.0,meteohub,2013-01-29 06:48:00,
2013-01-29 01:53:00,53.4,51.1,30.23,ENE,62,0.0,0.0,92,0.00,,,0.00,0.0,meteohub,2013-01-29 06:53:00,
2013-01-29 01:58:00,53.4,51.1,30.23,ENE,61,0.0,0.0,92,0.00,,,0.00,0.0,meteohub,2013-01-29 06:58:00,
2013-01-29 02:03:00,53.4,51.1,30.23,ENE,61,0.0,0.0,92,0.00,,,0.00,0.0,meteohub,2013-01-29 07:03:00,
2013-01-29 02:08:00,53.4,51.1,30.22,ENE,62,0.0,0.0,92,0.00,,,0.00,0.0,meteohub,2013-01-29 07:08:00,
2013-01-29 02:13:00,53.4,51.1,30.22,ENE,61,0.0,0.0,92,0.00,,,0.00,0.0,meteohub,2013-01-29 07:13:00,
2013-01-29 02:18:00,53.2,50.9,30.22,ENE,61,0.0,0.0,92,0.00,,,0.00,0.0,meteohub,2013-01-29 07:18:00,
2013-01-29 02:23:00,53.1,50.7,30.22,ENE,61,0.0,0.0,92,0.00,,,0.00,0.0,meteohub,2013-01-29 07:23:00,
2013-01-29 02:28:00,53.1,50.7,30.22,ENE,62,0.0,0.0,92,0.00,,,0.00,0.0,meteohub,2013-01-29 07:28:00,
2013-01-29 02:33:00,53.2,50.9,30.22,ENE,61,0.0,0.0,92,0.00,,,0.00,0.0,meteohub,2013-01-29 07:33:00,
2013-01-29 02:38:00,53.1,50.7,30.22,ENE,61,0.0,0.0,92,0.00,,,0.00,0.0,meteohub,2013-01-29 07:38:00,
2013-01-29 02:43:00,52.9,50.5,30.22,ENE,61,0.0,0.0,92,0.00,,,0.00,0.0,meteohub,2013-01-29 07:43:00,
2013-01-29 02:48:00,52.9,50.5,30.22,ENE,61,0.0,0.0,92,0.00,,,0.00,0.0,meteohub,2013-01-29 07:48:00,
2013-01-29 02:53:00,52.7,50.4,30.22,ENE,61,0.0,0.0,92,0.00,,,0.00,0.0,meteohub,2013-01-29 07:53:00,
2013-01-29 02:58:00,52.7,50.4,30.22,ENE,61,0.0,0.0,92,0.00,,,0.00,0.0,meteohub,2013-01-29 07:58:00,
2013-01-29 03:03:00,52.7,50.4,30.22,ENE,61,0.0,0.0,92,0.00,,,0.00,0.0,meteohub,2013-01-29 08:03:00,
2013-01-29 03:08:00,52.7,50.4,30.22,ENE,61,0.0,0.0,92,0.00,,,0.00,0.0,meteohub,2013-01-29 08:08:00,
2013-01-29 03:13:00,52.5,50.2,30.21,ENE,61,0.0,0.0,92,0.00,,,0.00,0.0,meteohub,2013-01-29 08:13:00,
2013-01-29 03:18:00,52.5,50.2,30.22,ENE,61,0.0,0.0,92,0.00,,,0.00,0.0,meteohub,2013-01-29 08:18:00,
2013-01-29 03:23:00,52.5,50.2,30.22,ENE,61,0.0,0.0,92,0.00,,,0.00,0.0,meteohub,2013-01-29 08:23:00,
2013-01-29 03:28:00,52.5,50.2,30.22,ENE,61,0.0,0.0,92,0.00,,,0.00,0.0,meteohub,2013-01-29 08:28:00,
2013-01-29 03:33:00,52.5,50.2,30.22,ENE,61,0.0,0.0,92,0.00,,,0.00,0.0,meteohub,2013-01-29 08:33:00,
2013-01-29 03:38:00,52.5,50.2,30.22,ENE,61,0.0,0.0,92,0.00,,,0.00,0.0,meteohub,2013-01-29 08:38:00,
2013-01-29 03:43:00,52.5,50.2,30.22,ENE,62,0.0,0.0,92,0.00,,,0.00,0.0,meteohub,2013-01-29 08:43:00,
2013-01-29 03:48:00,52.3,50.0,30.22,ENE,62,0.0,0.0,92,0.00,,,0.00,0.0,meteohub,2013-01-29 08:48:00,
2013-01-29 03:53:00,52.5,50.2,30.22,ENE,61,0.0,0.0,92,0.00,,,0.00,0.0,meteohub,2013-01-29 08:53:00,
2013-01-29 03:58:00,52.5,50.2,30.22,ENE,61,0.0,0.0,92,0.00,,,0.00,0.0,meteohub,2013-01-29 08:58:00,
2013-01-29 04:03:00,52.7,50.4,30.22,ENE,61,0.0,0.0,92,0.00,,,0.00,0.0,meteohub,2013-01-29 09:03:00,
2013-01-29 04:08:00,52.5,50.2,30.22,ENE,61,0.0,0.0,92,0.00,,,0.00,0.0,meteohub,2013-01-29 09:08:00,
2013-01-29 04:13:00,52.5,50.2,30.22,ENE,61,0.0,0.0,92,0.00,,,0.00,0.0,meteohub,2013-01-29 09:13:00,
2013-01-29 04:18:00,52.5,50.2,30.22,ENE,61,0.0,0.0,92,0.00,,,0.00,0.0,meteohub,2013-01-29 09:18:00,
2013-01-29 04:23:00,52.3,50.0,30.21,ENE,61,0.0,0.0,92,0.00,,,0.00,0.0,meteohub,2013-01-29 09:23:00,
2013-01-29 04:28:00,52.3,50.0,30.21,ENE,62,0.0,0.0,92,0.00,,,0.00,0.0,meteohub,2013-01-29 09:28:00,
2013-01-29 04:33:00,52.3,50.4,30.21,ENE,62,0.0,0.0,93,0.00,,,0.00,0.0,meteohub,2013-01-29 09:33:00,
2013-01-29 04:38:00,52.2,49.8,30.21,ENE,61,0.0,0.0,92,0.00,,,0.00,0.0,meteohub,2013-01-29 09:38:00,
2013-01-29 04:43:00,52.2,50.2,30.21,ENE,61,0.0,0.0,93,0.00,,,0.00,0.0,meteohub,2013-01-29 09:43:00,
2013-01-29 04:48:00,52.0,50.0,30.21,ENE,61,0.0,0.0,93,0.00,,,0.00,0.0,meteohub,2013-01-29 09:48:00,
2013-01-29 04:53:00,52.0,50.0,30.21,ENE,61,0.0,0.0,93,0.00,,,0.00,0.0,meteohub,2013-01-29 09:53:00,
2013-01-29 04:58:00,52.0,50.0,30.22,ENE,61,0.0,0.0,93,0.00,,,0.00,0.0,meteohub,2013-01-29 09:58:00,
2013-01-29 05:03:00,52.0,50.0,30.22,ENE,62,0.0,0.0,93,0.00,,,0.00,0.0,meteohub,2013-01-29 10:03:00,
2013-01-29 05:08:00,51.8,49.8,30.22,ENE,61,0.0,0.0,93,0.00,,,0.00,0.0,meteohub,2013-01-29 10:08:00,
2013-01-29 05:13:00,51.8,49.8,30.22,ENE,62,0.0,0.0,93,0.00,,,0.00,0.0,meteohub,2013-01-29 10:13:00,
2013-01-29 05:18:00,52.0,50.0,30.22,ENE,61,0.0,0.0,93,0.00,,,0.00,0.0,meteohub,2013-01-29 10:18:00,
2013-01-29 05:23:00,52.2,50.2,30.22,ENE,61,0.0,0.0,93,0.00,,,0.00,0.0,meteohub,2013-01-29 10:23:00,
2013-01-29 05:28:00,52.2,50.2,30.22,ENE,61,0.0,0.0,93,0.00,,,0.00,0.0,meteohub,2013-01-29 10:28:00,
2013-01-29 05:33:00,52.3,50.4,30.22,ENE,61,0.0,0.0,93,0.00,,,0.00,0.0,meteohub,2013-01-29 10:33:00,
2013-01-29 05:38:00,52.3,50.4,30.22,ENE,61,0.0,0.0,93,0.00,,,0.00,0.0,meteohub,2013-01-29 10:38:00,
2013-01-29 05:43:00,52.3,50.4,30.22,ENE,61,0.0,0.0,93,0.00,,,0.00,0.0,meteohub,2013-01-29 10:43:00,
2013-01-29 05:49:00,52.3,50.4,30.22,ENE,61,0.0,0.0,93,0.00,,,0.00,0.0,meteohub,2013-01-29 10:49:00,
2013-01-29 05:54:00,52.3,50.4,30.22,ENE,61,0.0,0.0,93,0.00,,,0.00,0.0,meteohub,2013-01-29 10:54:00,
2013-01-29 05:58:00,52.3,50.4,30.22,ENE,61,0.0,0.0,93,0.00,,,0.00,0.0,meteohub,2013-01-29 10:58:00,
2013-01-29 06:03:00,52.3,50.4,30.22,ENE,61,0.0,0.0,93,0.00,,,0.00,0.0,meteohub,2013-01-29 11:03:00,
2013-01-29 06:09:00,52.2,50.2,30.22,ENE,62,0.0,0.0,93,0.00,,,0.00,0.0,meteohub,2013-01-29 11:09:00,
2013-01-29 06:13:00,52.2,50.2,30.22,ENE,61,0.0,0.0,93,0.00,,,0.00,0.0,meteohub,2013-01-29 11:13:00,
2013-01-29 06:19:00,52.2,50.2,30.22,ENE,62,0.0,0.0,93,0.00,,,0.00,0.0,meteohub,2013-01-29 11:19:00,
2013-01-29 06:24:00,52.2,50.2,30.22,ENE,61,0.0,0.0,93,0.00,,,0.00,0.0,meteohub,2013-01-29 11:24:00,
2013-01-29 06:29:00,52.0,50.0,30.22,ENE,61,0.0,0.0,93,0.00,,,0.00,0.0,meteohub,2013-01-29 11:29:00,
2013-01-29 06:34:00,52.0,50.0,30.22,ENE,61,0.0,0.0,93,0.00,,,0.00,0.0,meteohub,2013-01-29 11:34:00,
2013-01-29 06:39:00,52.0,50.0,30.22,ENE,61,0.0,0.0,93,0.00,,,0.00,0.0,meteohub,2013-01-29 11:39:00,
2013-01-29 06:44:00,52.0,50.0,30.22,ENE,61,0.0,0.0,93,0.00,,,0.00,0.0,meteohub,2013-01-29 11:44:00,
2013-01-29 06:49:00,51.8,49.8,30.23,ENE,61,0.0,0.0,93,0.00,,,0.00,0.0,meteohub,2013-01-29 11:49:00,
2013-01-29 06:54:00,51.6,49.6,30.23,ENE,61,0.0,0.0,93,0.00,,,0.00,0.0,meteohub,2013-01-29 11:54:00,
2013-01-29 06:59:00,51.6,49.6,30.23,ENE,62,0.0,0.0,93,0.00,,,0.00,0.0,meteohub,2013-01-29 11:59:00,
2013-01-29 07:04:00,51.6,49.6,30.23,ENE,61,0.0,0.0,93,0.00,,,0.00,0.0,meteohub,2013-01-29 12:04:00,
2013-01-29 07:09:00,51.6,49.6,30.23,ENE,61,0.0,0.0,93,0.00,,,0.00,0.0,meteohub,2013-01-29 12:09:00,
2013-01-29 07:14:00,51.8,49.8,30.22,ENE,62,0.0,0.0,93,0.00,,,0.00,0.0,meteohub,2013-01-29 12:14:00,
2013-01-29 07:19:00,51.8,49.8,30.22,ENE,61,0.0,0.0,93,0.00,,,0.00,0.0,meteohub,2013-01-29 12:19:00,
2013-01-29 07:24:00,51.8,49.8,30.23,ENE,61,0.0,0.0,93,0.00,,,0.00,5.0,meteohub,2013-01-29 12:24:00,
2013-01-29 07:29:00,51.6,49.6,30.23,ENE,61,0.0,0.0,93,0.00,,,0.00,7.0,meteohub,2013-01-29 12:29:00,
2013-01-29 07:34:00,51.6,49.6,30.23,ENE,61,0.0,0.0,93,0.00,,,0.00,12.0,meteohub,2013-01-29 12:34:00,
2013-01-29 07:39:00,52.0,50.0,30.23,ENE,61,0.0,0.0,93,0.00,,,0.00,16.0,meteohub,2013-01-29 12:39:00,
2013-01-29 07:44:00,52.2,50.5,30.23,ENE,62,0.0,0.0,94,0.00,,,0.00,21.0,meteohub,2013-01-29 12:44:00,
2013-01-29 07:49:00,52.2,50.5,30.24,ENE,61,0.0,0.0,94,0.00,,,0.00,26.0,meteohub,2013-01-29 12:49:00,
2013-01-29 07:54:00,52.3,50.7,30.24,ENE,62,0.0,0.0,94,0.00,,,0.00,32.0,meteohub,2013-01-29 12:54:00,
2013-01-29 07:59:00,52.3,50.4,30.24,ENE,61,0.0,0.0,93,0.00,,,0.00,35.0,meteohub,2013-01-29 12:59:00,
2013-01-29 08:04:00,52.7,50.7,30.24,ENE,62,0.0,0.0,93,0.00,,,0.00,42.0,meteohub,2013-01-29 13:04:00,
2013-01-29 08:09:00,52.9,51.3,30.24,ENE,61,0.0,0.0,94,0.00,,,0.00,51.0,meteohub,2013-01-29 13:09:00,
2013-01-29 08:14:00,53.1,51.4,30.24,ENE,61,0.0,0.0,94,0.00,,,0.00,60.0,meteohub,2013-01-29 13:14:00,
2013-01-29 08:19:00,53.6,52.0,30.24,ENE,61,0.0,0.0,94,0.00,,,0.00,74.0,meteohub,2013-01-29 13:19:00,
2013-01-29 08:24:00,54.0,52.3,30.24,ENE,62,0.0,0.0,94,0.00,,,0.00,93.0,meteohub,2013-01-29 13:24:00,
2013-01-29 08:29:00,54.3,52.7,30.24,ENE,61,0.0,0.0,94,0.00,,,0.00,109.0,meteohub,2013-01-29 13:29:00,
2013-01-29 08:34:00,54.9,53.2,30.24,ENE,61,0.0,0.0,94,0.00,,,0.00,116.0,meteohub,2013-01-29 13:34:00,
2013-01-29 08:39:00,55.4,53.8,30.24,ENE,61,0.0,0.0,94,0.00,,,0.00,90.0,meteohub,2013-01-29 13:39:00,
2013-01-29 08:44:00,55.8,54.1,30.24,ENE,62,0.0,0.0,94,0.00,,,0.00,39.0,meteohub,2013-01-29 13:44:00,
2013-01-29 08:49:00,56.1,54.5,30.24,ENE,61,0.0,0.0,94,0.00,,,0.00,146.0,meteohub,2013-01-29 13:49:00,
2013-01-29 08:54:00,56.7,55.0,30.24,ENE,61,0.0,0.0,94,0.00,,,0.00,149.0,meteohub,2013-01-29 13:54:00,
2013-01-29 08:59:00,57.2,55.4,30.24,ENE,61,0.0,0.0,94,0.00,,,0.00,165.0,meteohub,2013-01-29 13:59:00,
2013-01-29 09:04:00,57.7,55.9,30.24,ENE,62,0.0,0.0,94,0.00,,,0.00,153.0,meteohub,2013-01-29 14:04:00,
2013-01-29 09:09:00,58.6,56.8,30.24,ENE,61,0.0,0.0,94,0.00,,,0.00,155.0,meteohub,2013-01-29 14:09:00,
2013-01-29 09:14:00,59.4,57.6,30.24,ENE,62,0.0,1.0,94,0.00,,,0.00,183.0,meteohub,2013-01-29 14:14:00,
2013-01-29 09:19:00,60.1,58.3,30.24,ENE,61,0.0,1.0,94,0.00,,,0.00,186.0,meteohub,2013-01-29 14:19:00,
2013-01-29 09:24:00,60.8,59.0,30.24,ENE,61,0.0,1.0,94,0.00,,,0.00,216.0,meteohub,2013-01-29 14:24:00,
2013-01-29 09:29:00,61.7,60.3,30.24,ENE,61,0.0,1.0,95,0.00,,,0.00,330.0,meteohub,2013-01-29 14:29:00,
2013-01-29 09:34:00,62.4,61.0,30.24,ENE,61,0.0,3.0,95,0.00,,,0.00,348.0,meteohub,2013-01-29 14:34:00,
2013-01-29 09:39:00,63.1,61.7,30.24,SSE,167,1.0,3.0,95,0.00,,,0.00,366.0,meteohub,2013-01-29 14:39:00,
2013-01-29 09:44:00,63.9,62.4,30.24,NE,38,0.0,3.0,95,0.00,,,0.00,390.0,meteohub,2013-01-29 14:44:00,
2013-01-29 09:49:00,64.6,63.1,30.24,ENE,63,1.0,3.0,95,0.00,,,0.00,410.0,meteohub,2013-01-29 14:49:00,
2013-01-29 09:54:00,65.3,63.5,30.23,ESE,111,1.0,3.0,94,0.00,,,0.00,425.0,meteohub,2013-01-29 14:54:00,
2013-01-29 09:59:00,65.8,64.0,30.24,SSE,164,0.0,8.0,94,0.00,,,0.00,438.0,meteohub,2013-01-29 14:59:00,
2013-01-29 10:04:00,66.6,64.8,30.23,ESE,120,1.0,8.0,94,0.00,,,0.00,454.0,meteohub,2013-01-29 15:04:00,
2013-01-29 10:09:00,67.1,65.3,30.23,SSE,149,0.0,8.0,94,0.00,,,0.00,461.0,meteohub,2013-01-29 15:09:00,
2013-01-29 10:14:00,67.6,65.8,30.23,South,182,0.0,7.0,94,0.00,,,0.00,473.0,meteohub,2013-01-29 15:14:00,
2013-01-29 10:19:00,68.2,66.0,30.24,East,101,3.0,7.0,93,0.00,,,0.00,489.0,meteohub,2013-01-29 15:19:00,
2013-01-29 10:24:00,68.7,66.6,30.23,SSW,202,5.0,6.0,93,0.00,,,0.00,499.0,meteohub,2013-01-29 15:24:00,
2013-01-29 10:29:00,69.1,66.7,30.24,ESE,111,1.0,6.0,92,0.00,,,0.00,510.0,meteohub,2013-01-29 15:29:00,
2013-01-29 10:34:00,69.4,66.7,30.24,SSE,157,2.0,6.0,91,0.00,,,0.00,519.0,meteohub,2013-01-29 15:34:00,
2013-01-29 10:39:00,69.8,67.1,30.23,SSW,210,3.0,8.0,91,0.00,,,0.00,531.0,meteohub,2013-01-29 15:39:00,
2013-01-29 10:44:00,70.0,66.9,30.23,SSW,198,2.0,8.0,90,0.00,,,0.00,543.0,meteohub,2013-01-29 15:44:00,
2013-01-29 10:49:00,70.3,67.3,30.23,SE,144,5.0,8.0,90,0.00,,,0.00,555.0,meteohub,2013-01-29 15:49:00,
2013-01-29 10:54:00,70.9,67.8,30.23,SSE,157,2.0,8.0,90,0.00,,,0.00,564.0,meteohub,2013-01-29 15:54:00,
2013-01-29 10:59:00,71.1,67.6,30.23,SSE,148,2.0,8.0,89,0.00,,,0.00,561.0,meteohub,2013-01-29 15:59:00,
2013-01-29 11:04:00,71.2,67.8,30.23,SSE,168,4.0,9.0,89,0.00,,,0.00,591.0,meteohub,2013-01-29 16:04:00,
2013-01-29 11:09:00,71.4,68.0,30.22,ESE,118,2.0,9.0,89,0.00,,,0.00,633.0,meteohub,2013-01-29 16:09:00,
2013-01-29 11:14:00,71.8,68.0,30.22,SSW,207,3.0,9.0,88,0.00,,,0.00,635.0,meteohub,2013-01-29 16:14:00,
2013-01-29 11:20:00,72.1,68.4,30.22,SE,132,9.0,9.0,88,0.00,,,0.00,626.0,meteohub,2013-01-29 16:20:00,
2013-01-29 11:25:00,72.5,68.7,30.22,SE,126,11.0,11.0,88,0.00,,,0.00,594.0,meteohub,2013-01-29 16:25:00,
2013-01-29 11:30:00,72.3,68.2,30.22,East,88,2.0,9.0,87,0.00,,,0.00,592.0,meteohub,2013-01-29 16:30:00,
2013-01-29 11:35:00,72.7,68.5,30.22,SSE,148,2.0,14.0,87,0.00,,,0.00,594.0,meteohub,2013-01-29 16:35:00,
2013-01-29 11:40:00,72.9,68.7,30.21,East,80,1.0,14.0,87,0.00,,,0.00,613.0,meteohub,2013-01-29 16:40:00,
2013-01-29 11:45:00,73.2,69.1,30.21,SW,228,2.0,9.0,87,0.00,,,0.00,631.0,meteohub,2013-01-29 16:45:00,
2013-01-29 11:50:00,73.6,69.1,30.21,East,85,3.0,9.0,86,0.00,,,0.00,635.0,meteohub,2013-01-29 16:50:00,
2013-01-29 11:55:00,73.4,68.9,30.20,ESE,106,2.0,10.0,86,0.00,,,0.00,640.0,meteohub,2013-01-29 16:55:00,
2013-01-29 12:00:00,73.6,69.1,30.20,South,175,4.0,10.0,86,0.00,,,0.00,645.0,meteohub,2013-01-29 17:00:00,
2013-01-29 12:05:00,73.8,68.9,30.19,SE,126,2.0,11.0,85,0.00,,,0.00,650.0,meteohub,2013-01-29 17:05:00,
2013-01-29 12:10:00,73.4,68.5,30.19,SSW,206,6.0,11.0,85,0.00,,,0.00,650.0,meteohub,2013-01-29 17:10:00,
2013-01-29 12:15:00,73.4,68.5,30.19,ESE,123,2.0,10.0,85,0.00,,,0.00,657.0,meteohub,2013-01-29 17:15:00,
2013-01-29 12:20:00,73.2,68.4,30.19,SE,143,1.0,11.0,85,0.00,,,0.00,661.0,meteohub,2013-01-29 17:20:00,
2013-01-29 12:25:00,73.6,68.7,30.19,SSW,199,0.0,11.0,85,0.00,,,0.00,661.0,meteohub,2013-01-29 17:25:00,
2013-01-29 12:30:00,73.6,68.7,30.18,SE,131,3.0,11.0,85,0.00,,,0.00,661.0,meteohub,2013-01-29 17:30:00,
2013-01-29 12:35:00,73.6,68.7,30.18,SSE,154,5.0,18.0,85,0.00,,,0.00,663.0,meteohub,2013-01-29 17:35:00,
2013-01-29 12:40:00,73.6,68.4,30.17,ESE,112,1.0,18.0,84,0.00,,,0.00,680.0,meteohub,2013-01-29 17:40:00,
2013-01-29 12:45:00,73.6,68.4,30.17,SE,130,1.0,13.0,84,0.00,,,0.00,705.0,meteohub,2013-01-29 17:45:00,
2013-01-29 12:50:00,73.9,68.7,30.17,SE,129,6.0,13.0,84,0.00,,,0.00,696.0,meteohub,2013-01-29 17:50:00,
2013-01-29 12:55:00,73.9,68.7,30.17,SE,132,3.0,16.0,84,0.00,,,0.00,679.0,meteohub,2013-01-29 17:55:00,
2013-01-29 13:00:00,74.1,68.9,30.17,East,94,2.0,16.0,84,0.00,,,0.00,710.0,meteohub,2013-01-29 18:00:00,
2013-01-29 13:05:00,73.9,68.7,30.16,ESE,119,3.0,10.0,84,0.00,,,0.00,176.0,meteohub,2013-01-29 18:05:00,
2013-01-29 13:10:00,74.5,69.3,30.16,SE,134,2.0,10.0,84,0.00,,,0.00,698.0,meteohub,2013-01-29 18:10:00,
2013-01-29 13:15:00,74.5,69.3,30.16,SW,221,2.0,10.0,84,0.00,,,0.00,708.0,meteohub,2013-01-29 18:15:00,
2013-01-29 13:20:00,74.5,68.9,30.16,SSW,194,5.0,9.0,83,0.00,,,0.00,693.0,meteohub,2013-01-29 18:20:00,
2013-01-29 13:25:00,74.7,69.4,30.15,SE,137,5.0,10.0,84,0.00,,,0.00,689.0,meteohub,2013-01-29 18:25:00,
2013-01-29 13:30:00,75.0,69.4,30.15,South,190,3.0,10.0,83,0.00,,,0.00,687.0,meteohub,2013-01-29 18:30:00,
2013-01-29 13:35:00,75.2,69.3,30.15,ESE,121,5.0,10.0,82,0.00,,,0.00,687.0,meteohub,2013-01-29 18:35:00,
2013-01-29 13:40:00,74.8,68.9,30.14,South,183,4.0,10.0,82,0.00,,,0.00,670.0,meteohub,2013-01-29 18:40:00,
2013-01-29 13:45:00,74.7,69.1,30.14,ESE,115,0.0,11.0,83,0.00,,,0.00,661.0,meteohub,2013-01-29 18:45:00,
2013-01-29 13:50:00,74.8,68.9,30.14,East,79,7.0,12.0,82,0.00,,,0.00,636.0,meteohub,2013-01-29 18:50:00,
2013-01-29 13:55:00,75.0,68.7,30.14,East,98,3.0,12.0,81,0.00,,,0.00,636.0,meteohub,2013-01-29 18:55:00,
2013-01-29 14:00:00,74.7,68.7,30.14,ESE,116,2.0,12.0,82,0.00,,,0.00,584.0,meteohub,2013-01-29 19:00:00,
2013-01-29 14:05:00,74.7,68.7,30.14,SSE,162,2.0,13.0,82,0.00,,,0.00,612.0,meteohub,2013-01-29 19:05:00,
2013-01-29 14:10:00,75.2,69.3,30.14,South,183,2.0,13.0,82,0.00,,,0.00,605.0,meteohub,2013-01-29 19:10:00,
2013-01-29 14:15:00,75.6,69.3,30.14,East,90,8.0,12.0,81,0.00,,,0.00,601.0,meteohub,2013-01-29 19:15:00,
2013-01-29 14:20:00,75.6,69.3,30.13,SSE,157,6.0,9.0,81,0.00,,,0.00,589.0,meteohub,2013-01-29 19:20:00,
2013-01-29 14:25:00,75.6,69.3,30.13,SSE,165,1.0,10.0,81,0.00,,,0.00,599.0,meteohub,2013-01-29 19:25:00,
2013-01-29 14:30:00,75.6,69.3,30.13,SSE,153,3.0,10.0,81,0.00,,,0.00,654.0,meteohub,2013-01-29 19:30:00,
2013-01-29 14:35:00,75.4,69.1,30.13,ESE,106,4.0,12.0,81,0.00,,,0.00,288.0,meteohub,2013-01-29 19:35:00,
2013-01-29 14:40:00,74.8,68.5,30.13,SSE,163,4.0,12.0,81,0.00,,,0.00,582.0,meteohub,2013-01-29 19:40:00,
2013-01-29 14:45:00,74.7,68.4,30.13,SSW,213,3.0,12.0,81,0.00,,,0.00,577.0,meteohub,2013-01-29 19:45:00,
2013-01-29 14:50:00,74.5,68.2,30.13,South,170,3.0,12.0,81,0.00,,,0.00,517.0,meteohub,2013-01-29 19:50:00,
2013-01-29 14:55:00,74.8,68.2,30.12,SSW,202,5.0,12.0,80,0.00,,,0.00,513.0,meteohub,2013-01-29 19:55:00,
2013-01-29 15:00:00,75.0,68.4,30.12,SE,142,6.0,11.0,80,0.00,,,0.00,497.0,meteohub,2013-01-29 20:00:00,
2013-01-29 15:05:00,74.8,68.2,30.12,South,190,4.0,10.0,80,0.00,,,0.00,483.0,meteohub,2013-01-29 20:05:00,
2013-01-29 15:10:00,74.7,68.0,30.12,South,173,3.0,11.0,80,0.00,,,0.00,469.0,meteohub,2013-01-29 20:10:00,
2013-01-29 15:15:00,74.7,68.0,30.12,SE,132,1.0,11.0,80,0.00,,,0.00,452.0,meteohub,2013-01-29 20:15:00,
2013-01-29 15:20:00,74.7,68.0,30.12,SSW,200,3.0,11.0,80,0.00,,,0.00,441.0,meteohub,2013-01-29 20:20:00,
2013-01-29 15:25:00,74.5,67.8,30.12,SE,126,5.0,11.0,80,0.00,,,0.00,427.0,meteohub,2013-01-29 20:25:00,
2013-01-29 15:30:00,74.7,68.0,30.12,SSW,194,7.0,11.0,80,0.00,,,0.00,413.0,meteohub,2013-01-29 20:30:00,
2013-01-29 15:35:00,74.5,67.8,30.12,SSW,200,6.0,11.0,80,0.00,,,0.00,397.0,meteohub,2013-01-29 20:35:00,
2013-01-29 15:40:00,74.5,67.8,30.12,South,180,5.0,10.0,80,0.00,,,0.00,387.0,meteohub,2013-01-29 20:40:00,
2013-01-29 15:45:00,74.5,67.8,30.12,SE,128,1.0,12.0,80,0.00,,,0.00,371.0,meteohub,2013-01-29 20:45:00,
2013-01-29 15:50:00,74.5,67.8,30.12,SSE,151,4.0,12.0,80,0.00,,,0.00,357.0,meteohub,2013-01-29 20:50:00,
2013-01-29 15:55:00,74.1,67.6,30.12,SSW,209,4.0,9.0,80,0.00,,,0.00,343.0,meteohub,2013-01-29 20:55:00,
2013-01-29 16:00:00,73.9,67.8,30.12,SE,142,4.0,9.0,81,0.00,,,0.00,327.0,meteohub,2013-01-29 21:00:00,
2013-01-29 16:05:00,73.8,67.6,30.12,SSE,156,0.0,9.0,81,0.00,,,0.00,311.0,meteohub,2013-01-29 21:05:00,
2013-01-29 16:10:00,73.6,67.5,30.12,East,92,0.0,9.0,81,0.00,,,0.00,295.0,meteohub,2013-01-29 21:10:00,
2013-01-29 16:15:00,73.0,67.3,30.12,ESE,118,10.0,10.0,82,0.00,,,0.00,278.0,meteohub,2013-01-29 21:15:00,
2013-01-29 16:20:00,72.9,67.1,30.12,ESE,120,1.0,14.0,82,0.00,,,0.00,206.0,meteohub,2013-01-29 21:20:00,
2013-01-29 16:25:00,72.5,66.7,30.12,SE,126,2.0,14.0,82,0.00,,,0.00,142.0,meteohub,2013-01-29 21:25:00,
2013-01-29 16:30:00,72.1,66.7,30.12,ESE,122,7.0,14.0,83,0.00,,,0.00,120.0,meteohub,2013-01-29 21:30:00,
2013-01-29 16:35:00,71.8,66.4,30.12,SE,133,0.0,10.0,83,0.00,,,0.00,58.0,meteohub,2013-01-29 21:35:00,
2013-01-29 16:40:00,71.4,66.0,30.12,SSE,148,4.0,10.0,83,0.00,,,0.00,93.0,meteohub,2013-01-29 21:40:00,
2013-01-29 16:45:00,71.1,65.7,30.11,SE,137,6.0,10.0,83,0.00,,,0.00,97.0,meteohub,2013-01-29 21:45:00,
2013-01-29 16:50:00,70.9,65.8,30.11,ESE,102,0.0,10.0,84,0.00,,,0.00,77.0,meteohub,2013-01-29 21:50:00,
2013-01-29 16:55:00,70.5,65.5,30.11,SE,142,2.0,9.0,84,0.00,,,0.00,70.0,meteohub,2013-01-29 21:55:00,
2013-01-29 17:00:00,70.2,65.5,30.11,South,187,4.0,9.0,85,0.00,,,0.00,63.0,meteohub,2013-01-29 22:00:00,
2013-01-29 17:05:00,69.8,65.1,30.10,SSE,157,1.0,9.0,85,0.00,,,0.00,56.0,meteohub,2013-01-29 22:05:00,
2013-01-29 17:11:00,69.6,64.9,30.10,SW,217,5.0,9.0,85,0.00,,,0.00,47.0,meteohub,2013-01-29 22:11:00,
2013-01-29 17:15:00,69.3,64.6,30.10,SSE,148,0.0,9.0,85,0.00,,,0.00,35.0,meteohub,2013-01-29 22:15:00,
2013-01-29 17:21:00,69.1,64.8,30.10,ESE,112,0.0,6.0,86,0.00,,,0.00,28.0,meteohub,2013-01-29 22:21:00,
2013-01-29 17:26:00,68.7,64.4,30.10,SE,138,2.0,9.0,86,0.00,,,0.00,23.0,meteohub,2013-01-29 22:26:00,
2013-01-29 17:31:00,68.4,64.0,30.10,South,189,5.0,9.0,86,0.00,,,0.00,21.0,meteohub,2013-01-29 22:31:00,
2013-01-29 17:36:00,68.2,63.9,30.10,SE,144,0.0,9.0,86,0.00,,,0.00,18.0,meteohub,2013-01-29 22:36:00,
2013-01-29 17:41:00,67.8,63.9,30.10,SSE,149,1.0,5.0,87,0.00,,,0.00,16.0,meteohub,2013-01-29 22:41:00,
2013-01-29 17:46:00,67.6,63.7,30.10,SE,130,4.0,5.0,87,0.00,,,0.00,11.0,meteohub,2013-01-29 22:46:00,
2013-01-29 17:51:00,67.5,63.5,30.10,SSE,164,0.0,7.0,87,0.00,,,0.00,7.0,meteohub,2013-01-29 22:51:00,
2013-01-29 17:56:00,67.3,63.3,30.10,ESE,123,0.0,8.0,87,0.00,,,0.00,5.0,meteohub,2013-01-29 22:56:00,
2013-01-29 18:01:00,67.1,63.1,30.10,SE,134,0.0,8.0,87,0.00,,,0.00,0.0,meteohub,2013-01-29 23:01:00,
2013-01-29 18:06:00,66.9,63.3,30.10,ESE,120,0.0,8.0,88,0.00,,,0.00,0.0,meteohub,2013-01-29 23:06:00,
2013-01-29 18:11:00,66.7,63.1,30.09,ESE,103,1.0,6.0,88,0.00,,,0.00,0.0,meteohub,2013-01-29 23:11:00,
2013-01-29 18:16:00,66.6,63.0,30.09,East,87,0.0,7.0,88,0.00,,,0.00,0.0,meteohub,2013-01-29 23:16:00,
2013-01-29 18:21:00,66.4,62.8,30.09,ESE,117,1.0,7.0,88,0.00,,,0.00,0.0,meteohub,2013-01-29 23:21:00,
2013-01-29 18:26:00,66.4,63.0,30.09,SE,126,0.0,7.0,89,0.00,,,0.00,0.0,meteohub,2013-01-29 23:26:00,
2013-01-29 18:31:00,66.4,63.0,30.09,SE,134,4.0,7.0,89,0.00,,,0.00,0.0,meteohub,2013-01-29 23:31:00,
2013-01-29 18:36:00,66.4,63.0,30.09,SE,136,0.0,8.0,89,0.00,,,0.00,0.0,meteohub,2013-01-29 23:36:00,
2013-01-29 18:41:00,66.2,62.8,30.09,ESE,109,3.0,8.0,89,0.00,,,0.00,0.0,meteohub,2013-01-29 23:41:00,
2013-01-29 18:46:00,66.2,62.8,30.09,SE,131,0.0,8.0,89,0.00,,,0.00,0.0,meteohub,2013-01-29 23:46:00,
2013-01-29 18:51:00,66.4,63.3,30.09,South,174,2.0,8.0,90,0.00,,,0.00,0.0,meteohub,2013-01-29 23:51:00,
2013-01-29 18:56:00,66.2,63.1,30.09,ESE,121,1.0,7.0,90,0.00,,,0.00,0.0,meteohub,2013-01-29 23:56:00,
2013-01-29 19:01:00,66.4,63.3,30.09,ESE,119,4.0,6.0,90,0.00,,,0.00,0.0,meteohub,2013-01-30 00:01:00,
2013-01-29 19:06:00,66.4,63.3,30.09,SE,138,0.0,7.0,90,0.00,,,0.00,0.0,meteohub,2013-01-30 00:06:00,
2013-01-29 19:11:00,66.4,63.3,30.09,South,191,1.0,7.0,90,0.00,,,0.00,0.0,meteohub,2013-01-30 00:11:00,
2013-01-29 19:16:00,66.2,63.1,30.09,East,87,2.0,7.0,90,0.00,,,0.00,0.0,meteohub,2013-01-30 00:16:00,
2013-01-29 19:21:00,66.0,63.0,30.09,SSE,161,1.0,6.0,90,0.00,,,0.00,0.0,meteohub,2013-01-30 00:21:00,
2013-01-29 19:26:00,66.0,63.3,30.09,SE,142,1.0,6.0,91,0.00,,,0.00,0.0,meteohub,2013-01-30 00:26:00,
2013-01-29 19:31:00,65.8,63.1,30.09,South,184,3.0,6.0,91,0.00,,,0.00,0.0,meteohub,2013-01-30 00:31:00,
2013-01-29 19:36:00,65.8,63.1,30.09,SSE,167,0.0,7.0,91,0.00,,,0.00,0.0,meteohub,2013-01-30 00:36:00,
2013-01-29 19:41:00,65.7,63.0,30.09,East,93,2.0,7.0,91,0.00,,,0.00,0.0,meteohub,2013-01-30 00:41:00,
2013-01-29 19:46:00,65.7,63.0,30.09,ESE,111,0.0,7.0,91,0.00,,,0.00,0.0,meteohub,2013-01-30 00:46:00,
2013-01-29 19:51:00,65.7,63.0,30.09,SE,138,0.0,7.0,91,0.00,,,0.00,0.0,meteohub,2013-01-30 00:51:00,
2013-01-29 19:56:00,65.7,63.0,30.09,SE,143,0.0,7.0,91,0.00,,,0.00,0.0,meteohub,2013-01-30 00:56:00,
2013-01-29 20:01:00,65.7,63.0,30.09,SE,129,0.0,6.0,91,0.00,,,0.00,0.0,meteohub,2013-01-30 01:01:00,
2013-01-29 20:06:00,65.7,63.0,30.09,SE,126,0.0,6.0,91,0.00,,,0.00,0.0,meteohub,2013-01-30 01:06:00,
2013-01-29 20:11:00,65.7,63.0,30.09,South,177,0.0,5.0,91,0.00,,,0.00,0.0,meteohub,2013-01-30 01:11:00,
2013-01-29 20:16:00,65.7,63.0,30.09,SE,130,0.0,4.0,91,0.00,,,0.00,0.0,meteohub,2013-01-30 01:16:00,
2013-01-29 20:21:00,65.7,63.0,30.09,SSE,166,0.0,4.0,91,0.00,,,0.00,0.0,meteohub,2013-01-30 01:21:00,
2013-01-29 20:26:00,65.7,63.0,30.09,South,173,4.0,4.0,91,0.00,,,0.00,0.0,meteohub,2013-01-30 01:26:00,
2013-01-29 20:31:00,65.5,62.8,30.10,SE,130,3.0,4.0,91,0.00,,,0.00,0.0,meteohub,2013-01-30 01:31:00,
2013-01-29 20:36:00,65.5,62.8,30.10,ESE,114,0.0,6.0,91,0.00,,,0.00,0.0,meteohub,2013-01-30 01:36:00,
2013-01-29 20:41:00,65.5,62.8,30.10,South,178,3.0,6.0,91,0.00,,,0.00,0.0,meteohub,2013-01-30 01:41:00,
2013-01-29 20:47:00,65.5,62.8,30.10,SSE,161,0.0,6.0,91,0.00,,,0.00,0.0,meteohub,2013-01-30 01:47:00,
2013-01-29 20:52:00,65.3,62.6,30.10,SE,134,0.0,4.0,91,0.00,,,0.00,0.0,meteohub,2013-01-30 01:52:00,
2013-01-29 20:57:00,65.3,63.0,30.10,ESE,123,0.0,4.0,92,0.00,,,0.00,0.0,meteohub,2013-01-30 01:57:00,
2013-01-29 21:01:00,65.3,63.0,30.10,ESE,123,0.0,4.0,92,0.00,,,0.00,0.0,meteohub,2013-01-30 02:01:00,
2013-01-29 21:06:00,65.3,63.0,30.10,South,187,3.0,6.0,92,0.00,,,0.00,0.0,meteohub,2013-01-30 02:06:00,
2013-01-29 21:11:00,65.3,63.0,30.09,South,169,1.0,6.0,92,0.00,,,0.00,0.0,meteohub,2013-01-30 02:11:00,
2013-01-29 21:16:00,65.5,63.1,30.09,South,171,0.0,6.0,92,0.00,,,0.00,0.0,meteohub,2013-01-30 02:16:00,
2013-01-29 21:21:00,65.5,63.1,30.09,SSE,167,0.0,6.0,92,0.00,,,0.00,0.0,meteohub,2013-01-30 02:21:00,
2013-01-29 21:26:00,65.5,63.1,30.09,ESE,113,0.0,6.0,92,0.00,,,0.00,0.0,meteohub,2013-01-30 02:26:00,
2013-01-29 21:31:00,65.5,63.1,30.09,ESE,121,0.0,5.0,92,0.00,,,0.00,0.0,meteohub,2013-01-30 02:31:00,
2013-01-29 21:37:00,65.5,63.1,30.09,SSE,148,3.0,6.0,92,0.00,,,0.00,0.0,meteohub,2013-01-30 02:37:00,
2013-01-29 21:42:00,65.7,63.3,30.09,SSE,155,2.0,8.0,92,0.00,,,0.00,0.0,meteohub,2013-01-30 02:42:00,
2013-01-29 21:47:00,65.7,63.3,30.09,SE,136,1.0,8.0,92,0.00,,,0.00,0.0,meteohub,2013-01-30 02:47:00,
2013-01-29 21:52:00,65.8,63.5,30.09,SSE,163,2.0,8.0,92,0.00,,,0.00,0.0,meteohub,2013-01-30 02:52:00,
2013-01-29 21:57:00,65.8,63.5,30.08,SE,146,0.0,7.0,92,0.00,,,0.00,0.0,meteohub,2013-01-30 02:57:00,
2013-01-29 22:02:00,66.0,63.7,30.09,SE,138,2.0,7.0,92,0.00,,,0.00,0.0,meteohub,2013-01-30 03:02:00,
2013-01-29 22:07:00,66.2,63.9,30.09,SE,134,0.0,8.0,92,0.00,,,0.00,0.0,meteohub,2013-01-30 03:07:00,
2013-01-29 22:12:00,66.4,64.0,30.09,South,189,2.0,8.0,92,0.00,,,0.00,0.0,meteohub,2013-01-30 03:12:00,
2013-01-29 22:17:00,66.6,64.2,30.09,SSE,165,7.0,7.0,92,0.00,,,0.00,0.0,meteohub,2013-01-30 03:17:00,
2013-01-29 22:22:00,66.7,64.4,30.10,SSE,166,2.0,9.0,92,0.00,,,0.00,0.0,meteohub,2013-01-30 03:22:00,
2013-01-29 22:27:00,66.9,64.6,30.10,SW,215,7.0,9.0,92,0.00,,,0.00,0.0,meteohub,2013-01-30 03:27:00,
2013-01-29 22:32:00,67.1,64.8,30.10,SSE,152,0.0,9.0,92,0.00,,,0.00,0.0,meteohub,2013-01-30 03:32:00,
2013-01-29 22:37:00,67.1,64.8,30.10,ESE,105,1.0,11.0,92,0.00,,,0.00,0.0,meteohub,2013-01-30 03:37:00,
2013-01-29 22:42:00,67.1,64.8,30.10,SSE,160,1.0,11.0,92,0.00,,,0.00,0.0,meteohub,2013-01-30 03:42:00,
2013-01-29 22:47:00,67.1,64.8,30.10,SSE,161,1.0,7.0,92,0.00,,,0.00,0.0,meteohub,2013-01-30 03:47:00,
2013-01-29 22:52:00,67.1,64.8,30.11,SSE,156,3.0,7.0,92,0.00,,,0.00,0.0,meteohub,2013-01-30 03:52:00,
2013-01-29 22:57:00,66.9,64.6,30.11,South,169,0.0,12.0,92,0.00,,,0.00,0.0,meteohub,2013-01-30 03:57:00,
2013-01-29 23:02:00,66.9,64.6,30.11,South,186,3.0,12.0,92,0.00,,,0.00,0.0,meteohub,2013-01-30 04:02:00,
2013-01-29 23:07:00,66.7,64.4,30.11,South,173,5.0,8.0,92,0.00,,,0.00,0.0,meteohub,2013-01-30 04:07:00,
2013-01-29 23:12:00,66.6,64.2,30.11,SSE,161,1.0,8.0,92,0.00,,,0.00,0.0,meteohub,2013-01-30 04:12:00,
2013-01-29 23:17:00,66.4,64.0,30.10,SSE,153,3.0,7.0,92,0.00,,,0.00,0.0,meteohub,2013-01-30 04:17:00,
2013-01-29 23:22:00,66.2,63.9,30.10,SSE,148,3.0,7.0,92,0.00,,,0.00,0.0,meteohub,2013-01-30 04:22:00,
2013-01-29 23:27:00,66.0,63.7,30.10,South,182,3.0,7.0,92,0.00,,,0.00,0.0,meteohub,2013-01-30 04:27:00,
2013-01-29 23:32:00,65.8,63.5,30.10,SE,134,5.0,7.0,92,0.00,,,0.00,0.0,meteohub,2013-01-30 04:32:00,
2013-01-29 23:37:00,65.7,63.3,30.10,ENE,76,2.0,7.0,92,0.00,,,0.00,0.0,meteohub,2013-01-30 04:37:00,
2013-01-29 23:42:00,65.7,63.3,30.10,East,89,3.0,6.0,92,0.00,,,0.00,0.0,meteohub,2013-01-30 04:42:00,
2013-01-29 23:47:00,65.5,63.1,30.10,South,169,2.0,7.0,92,0.00,,,0.00,0.0,meteohub,2013-01-30 04:47:00,
2013-01-29 23:52:00,65.3,63.0,30.09,SE,144,2.0,7.0,92,0.00,,,0.00,0.0,meteohub,2013-01-30 04:52:00,
2013-01-29 23:57:00,65.1,63.0,30.09,SE,144,1.0,7.0,93,0.00,,,0.00,0.0,meteohub,2013-01-30 04:57:00,